createdAt,value
2023-04-14T00:02:24.779Z,10.95
2023-04-14T00:04:52.463Z,11.70
2023-04-14T00:07:19.439Z,9.30
2023-04-14T00:09:46.386Z,11.77
2023-04-14T00:12:13.539Z,12.07
2023-04-14T00:14:40.759Z,13.13
2023-04-14T00:17:09.164Z,14.10
2023-04-14T00:19:36.231Z,14.57
2023-04-14T00:22:03.275Z,15.02
2023-04-14T00:24:30.315Z,9.80
2023-04-14T00:26:57.464Z,11.95
2023-04-14T00:29:24.390Z,12.90
2023-04-14T00:31:51.620Z,13.25
2023-04-14T00:34:20.171Z,15.70
2023-04-14T00:36:47.121Z,13.70
2023-04-14T00:39:14.446Z,13.00
2023-04-14T00:41:43.356Z,13.45
2023-04-14T00:44:10.318Z,13.85
2023-04-14T00:46:37.546Z,13.38
2023-04-14T00:49:04.723Z,11.20
2023-04-14T00:51:34.142Z,7.97
2023-04-14T00:54:02.659Z,12.10
2023-04-14T00:56:31.654Z,10.75
2023-04-14T00:59:00.702Z,9.93
2023-04-14T01:01:28.690Z,7.43
2023-04-14T01:03:56.680Z,11.05
2023-04-14T01:06:23.742Z,11.80
2023-04-14T01:08:53.373Z,10.13
2023-04-14T01:11:31.130Z,9.18
2023-04-14T01:14:05.669Z,8.73
2023-04-14T01:16:38.585Z,6.90
2023-04-14T01:19:10.979Z,8.88
2023-04-14T01:21:38.779Z,9.10
2023-04-14T01:24:24.858Z,9.18
2023-04-14T01:27:03.471Z,9.50
2023-04-14T01:29:54.993Z,9.38
2023-04-14T01:32:26.873Z,8.48
2023-04-14T01:34:57.624Z,8.52
2023-04-14T01:37:32.489Z,9.05
2023-04-14T01:40:05.937Z,8.77
2023-04-14T01:42:36.998Z,7.80
2023-04-14T01:45:09.939Z,7.55
2023-04-14T01:47:40.628Z,9.00
2023-04-14T01:50:09.819Z,7.60
2023-04-14T01:52:38.274Z,9.97
2023-04-14T01:55:09.963Z,9.60
2023-04-14T01:57:37.971Z,10.25
2023-04-14T02:00:09.336Z,10.55
2023-04-14T02:02:39.509Z,9.32
2023-04-14T02:05:10.122Z,10.20
2023-04-14T02:07:39.082Z,10.55
2023-04-14T02:10:09.008Z,11.27
2023-04-14T02:12:39.628Z,10.32
2023-04-14T02:15:13.521Z,8.55
2023-04-14T02:17:42.997Z,9.70
2023-04-14T02:20:13.332Z,9.40
2023-04-14T02:22:41.047Z,9.98
2023-04-14T02:25:08.970Z,9.05
2023-04-14T02:27:38.647Z,8.35
2023-04-14T02:30:11.579Z,8.77
2023-04-14T02:32:45.403Z,9.80
2023-04-14T02:35:16.907Z,8.20
2023-04-14T02:37:48.913Z,8.43
2023-04-14T02:40:20.602Z,8.05
2023-04-14T02:42:53.137Z,6.20
2023-04-14T02:45:26.374Z,7.72
2023-04-14T02:48:01.628Z,7.05
2023-04-14T02:50:31.008Z,8.40
2023-04-14T02:52:59.557Z,7.28
2023-04-14T02:55:27.592Z,7.73
2023-04-14T02:57:55.777Z,7.30
2023-04-14T03:00:24.323Z,9.40
2023-04-14T03:02:54.748Z,8.85
2023-04-14T03:05:22.333Z,8.40
2023-04-14T03:07:51.969Z,9.13
2023-04-14T03:10:20.508Z,8.00
2023-04-14T03:12:49.242Z,8.25
2023-04-14T03:15:17.526Z,6.65
2023-04-14T03:17:48.088Z,8.82
2023-04-14T03:20:20.213Z,7.70
2023-04-14T03:22:50.139Z,9.23
2023-04-14T03:25:17.421Z,10.93
2023-04-14T03:27:46.089Z,11.45
2023-04-14T03:30:14.560Z,10.00
2023-04-14T03:32:43.766Z,9.33
2023-04-14T03:35:13.381Z,10.38
2023-04-14T03:37:43.273Z,8.27
2023-04-14T03:40:11.586Z,11.45
2023-04-14T03:42:41.151Z,10.43
2023-04-14T03:45:09.574Z,10.60
2023-04-14T03:47:37.816Z,9.45
2023-04-14T03:50:09.400Z,11.10
2023-04-14T03:52:39.549Z,9.93
2023-04-14T03:55:12.829Z,10.40
2023-04-14T03:57:42.099Z,12.53
2023-04-14T04:00:12.820Z,10.50
2023-04-14T04:02:41.075Z,11.32
2023-04-14T04:05:11.201Z,11.10
2023-04-14T04:07:41.027Z,12.23
2023-04-14T04:10:12.744Z,10.83
2023-04-14T04:12:43.421Z,11.52
2023-04-14T04:15:11.546Z,10.48
2023-04-14T04:17:40.237Z,10.13
2023-04-14T04:20:11.554Z,10.15
2023-04-14T04:22:46.402Z,10.57
2023-04-14T04:25:15.791Z,8.98
2023-04-14T04:27:43.379Z,10.55
2023-04-14T04:30:13.286Z,9.82
2023-04-14T04:32:40.895Z,9.30
2023-04-14T04:35:09.265Z,7.93
2023-04-14T04:37:37.883Z,7.75
2023-04-14T04:40:07.498Z,9.98
2023-04-14T04:42:41.117Z,10.40
2023-04-14T04:45:09.500Z,11.45
2023-04-14T04:47:36.885Z,9.20
2023-04-14T04:50:04.647Z,9.13
2023-04-14T04:52:31.977Z,9.90
2023-04-14T04:54:59.281Z,9.63
2023-04-14T04:57:26.587Z,10.52
2023-04-14T04:59:55.182Z,9.37
2023-04-14T05:02:23.499Z,9.65
2023-04-14T05:04:51.573Z,9.95
2023-04-14T05:07:19.830Z,9.73
2023-04-14T05:09:47.025Z,10.13
2023-04-14T05:12:14.413Z,9.77
2023-04-14T05:14:41.782Z,9.27
2023-04-14T05:17:10.774Z,9.00
2023-04-14T05:19:39.070Z,7.18
2023-04-14T05:22:06.577Z,9.27
2023-04-14T05:24:34.150Z,9.40
2023-04-14T05:27:13.619Z,9.60
2023-04-14T05:29:41.443Z,9.50
2023-04-14T05:32:11.648Z,8.70
2023-04-14T05:34:43.211Z,5.90
2023-04-14T05:37:11.040Z,8.27
2023-04-14T05:39:38.384Z,5.43
2023-04-14T05:44:50.961Z,5.07
2023-04-14T05:47:19.496Z,4.68
2023-04-14T05:49:54.943Z,6.40
2023-04-14T05:52:24.067Z,3.55
2023-04-14T05:54:51.132Z,3.42
2023-04-14T05:57:25.385Z,5.18
2023-04-14T05:59:57.052Z,4.00
2023-04-14T06:02:28.580Z,3.43
2023-04-14T06:04:58.327Z,3.95
2023-04-14T06:07:25.625Z,2.85
2023-04-14T06:09:52.900Z,2.85
2023-04-14T06:12:19.887Z,2.30
2023-04-14T06:14:47.370Z,3.07
2023-04-14T06:17:14.373Z,2.30
2023-04-14T06:19:43.027Z,2.58
2023-04-14T06:22:10.045Z,2.42
2023-04-14T06:24:36.885Z,2.33
2023-04-14T06:27:04.194Z,2.67
2023-04-14T06:29:31.167Z,2.45
2023-04-14T06:31:58.454Z,2.17
2023-04-14T06:34:25.894Z,2.40
2023-04-14T06:36:56.729Z,2.03
2023-04-14T06:39:23.648Z,2.00
2023-04-14T06:41:50.897Z,2.10
2023-04-14T06:44:18.090Z,2.75
2023-04-14T06:46:45.263Z,5.20
2023-04-14T06:49:12.392Z,2.22
2023-04-14T06:51:39.450Z,1.57
2023-04-14T06:54:08.061Z,1.02
2023-04-14T06:56:35.041Z,1.08
2023-04-14T06:59:02.250Z,1.00
2023-04-14T07:01:31.962Z,0.95
2023-04-14T07:03:59.752Z,0.70
2023-04-14T07:06:27.619Z,0.50
2023-04-14T07:09:03.851Z,0.70
2023-04-14T07:11:33.459Z,0.80
2023-04-14T07:14:01.083Z,0.70
2023-04-14T07:16:30.297Z,1.10
2023-04-14T07:18:57.439Z,0.80
2023-04-14T07:21:27.730Z,0.50
2023-04-14T07:23:59.908Z,0.82
2023-04-14T07:26:28.614Z,1.95
2023-04-14T07:29:38.214Z,1.30
2023-04-14T07:32:13.583Z,0.70
2023-04-14T07:34:45.829Z,0.50
2023-04-14T07:37:15.380Z,1.00
2023-04-14T07:39:42.454Z,1.42
2023-04-14T07:45:47.802Z,1.38
2023-04-14T07:48:19.923Z,1.50
2023-04-14T07:50:48.527Z,1.05
2023-04-14T07:53:17.528Z,0.98
2023-04-14T07:55:44.797Z,0.70
2023-04-14T07:58:15.321Z,0.63
2023-04-14T08:00:46.032Z,0.70
2023-04-14T08:03:14.200Z,2.50
2023-04-14T08:05:43.194Z,0.60
2023-04-14T08:08:14.363Z,2.03
2023-04-14T08:10:42.159Z,0.50
2023-04-14T08:13:09.525Z,0.45
2023-04-14T08:15:36.592Z,0.30
2023-04-14T08:18:03.809Z,0.40
2023-04-14T08:20:30.815Z,1.20
2023-04-14T08:23:01.618Z,0.88
2023-04-14T08:25:28.934Z,0.43
2023-04-14T08:27:56.184Z,0.30
2023-04-14T08:30:24.770Z,0.30
2023-04-14T08:32:52.388Z,0.30
2023-04-14T08:35:39.631Z,0.20
2023-04-14T08:38:09.260Z,0.40
2023-04-14T08:40:38.789Z,0.60
2023-04-14T08:43:08.355Z,0.68
2023-04-14T08:45:36.792Z,0.30
2023-04-14T08:48:05.122Z,0.60
2023-04-14T08:50:48.207Z,1.60
2023-04-14T08:53:20.386Z,1.00
2023-04-14T08:55:48.434Z,0.30
2023-04-14T08:58:16.692Z,0.40
2023-04-14T09:00:44.166Z,0.28
2023-04-14T09:03:15.766Z,0.32
2023-04-14T09:05:44.444Z,0.30
2023-04-14T09:08:20.479Z,0.35
2023-04-14T09:10:48.591Z,0.30
2023-04-14T09:13:23.173Z,0.20
2023-04-14T09:15:51.315Z,0.30
2023-04-14T09:18:20.466Z,0.20
2023-04-14T09:21:51.088Z,0.50
2023-04-14T09:23:50.758Z,0.40
2023-04-14T09:26:17.997Z,0.20
2023-04-14T09:28:45.525Z,0.20
2023-04-14T09:31:14.992Z,0.20
2023-04-14T09:33:45.407Z,0.40
2023-04-14T09:36:18.808Z,0.30
2023-04-14T09:38:46.737Z,0.20
2023-04-14T09:41:53.464Z,0.50
2023-04-14T09:49:37.227Z,0.30
2023-04-14T09:53:16.958Z,0.30
2023-04-14T09:56:40.379Z,0.30
2023-04-14T09:59:46.987Z,0.32
2023-04-14T10:02:17.580Z,0.43
2023-04-14T10:04:45.124Z,0.40
2023-04-14T10:07:20.494Z,0.40
2023-04-14T10:09:49.444Z,0.30
2023-04-14T10:12:25.846Z,0.30
2023-04-14T10:14:54.512Z,0.30
2023-04-14T10:17:21.865Z,0.30
2023-04-14T10:19:49.752Z,0.53
2023-04-14T10:22:18.008Z,0.40
2023-04-14T10:24:45.515Z,0.75
2023-04-14T10:27:13.421Z,0.70
2023-04-14T10:29:47.147Z,0.77
2023-04-14T10:32:17.814Z,0.40
2023-04-14T10:35:05.516Z,0.43
2023-04-14T10:37:33.558Z,0.30
2023-04-14T10:40:06.865Z,0.20
2023-04-14T10:42:56.729Z,0.30
2023-04-14T10:45:24.237Z,0.27
2023-04-14T10:47:53.228Z,0.30
2023-04-14T10:50:25.264Z,0.30
2023-04-14T10:53:11.231Z,0.22
2023-04-14T10:55:52.321Z,0.30
2023-04-14T10:58:22.364Z,0.40
2023-04-14T11:00:50.138Z,0.30
2023-04-14T11:03:19.400Z,0.40
2023-04-14T11:05:49.781Z,0.40
2023-04-14T11:08:25.547Z,0.30
2023-04-14T11:11:01.899Z,0.30
2023-04-14T11:13:33.976Z,0.30
2023-04-14T11:16:03.138Z,0.30
2023-04-14T11:18:42.772Z,0.40
2023-04-14T11:21:14.632Z,0.20
2023-04-14T11:23:43.647Z,0.30
2023-04-14T11:26:12.265Z,0.40
2023-04-14T11:28:42.835Z,0.50
2023-04-14T11:31:12.318Z,0.50
2023-04-14T11:33:42.361Z,0.50
2023-04-14T11:36:13.145Z,0.40
2023-04-14T11:38:43.078Z,0.63
2023-04-14T11:41:15.969Z,0.50
2023-04-14T11:43:47.143Z,1.60
2023-04-14T11:46:20.026Z,1.33
2023-04-14T11:48:55.220Z,0.40
2023-04-14T11:51:34.659Z,0.90
2023-04-14T11:54:06.307Z,0.40
2023-04-14T11:56:38.677Z,0.20
2023-04-14T11:59:06.922Z,0.30
2023-04-14T12:01:44.374Z,0.33
2023-04-14T12:04:13.532Z,0.52
2023-04-14T12:06:44.165Z,0.30
2023-04-14T12:09:11.507Z,0.30
2023-04-14T12:11:48.968Z,0.40
2023-04-14T12:14:16.439Z,0.40
2023-04-14T12:16:48.390Z,0.30
2023-04-14T12:19:17.121Z,0.30
2023-04-14T12:21:53.127Z,0.20
2023-04-14T12:24:22.714Z,0.30
2023-04-14T12:26:49.946Z,0.50
2023-04-14T12:29:28.527Z,0.40
2023-04-14T12:31:56.687Z,0.40
2023-04-14T12:34:27.164Z,0.60
2023-04-14T12:36:54.565Z,0.40
2023-04-14T12:39:22.498Z,0.43
2023-04-14T12:41:52.522Z,0.40
2023-04-14T12:44:21.102Z,0.20
2023-04-14T12:46:49.975Z,0.30
2023-04-14T12:49:31.621Z,0.38
2023-04-14T12:51:58.929Z,0.27
2023-04-14T12:54:26.662Z,0.30
2023-04-14T12:56:54.211Z,0.30
2023-04-14T12:59:28.048Z,0.30
2023-04-14T13:01:56.443Z,0.30
2023-04-14T13:04:27.306Z,0.20
2023-04-14T13:06:56.076Z,0.52
2023-04-14T13:09:23.326Z,0.50
2023-04-14T13:11:50.863Z,0.40
2023-04-14T13:14:18.278Z,0.50
2023-04-14T13:16:45.710Z,0.30
2023-04-14T13:19:13.620Z,0.50
2023-04-14T13:21:41.578Z,0.30
2023-04-14T13:24:10.389Z,0.30
2023-04-14T13:26:38.322Z,1.30
2023-04-14T13:29:09.124Z,0.60
2023-04-14T13:31:36.978Z,0.60
2023-04-14T13:34:04.565Z,0.50
2023-04-14T13:36:31.840Z,0.50
2023-04-14T13:38:59.698Z,0.30
2023-04-14T13:41:28.432Z,2.40
2023-04-14T13:43:55.855Z,2.97
2023-04-14T13:46:23.192Z,0.60
2023-04-14T13:48:50.625Z,0.90
2023-04-14T13:51:18.775Z,0.63
2023-04-14T13:53:46.727Z,4.30
2023-04-14T13:56:13.996Z,1.05
2023-04-14T13:58:42.712Z,5.53
2023-04-14T14:01:10.964Z,4.30
2023-04-14T14:03:39.930Z,8.18
2023-04-14T14:06:08.032Z,4.77
2023-04-14T14:08:38.590Z,2.10
2023-04-14T14:11:06.325Z,1.70
2023-04-14T14:13:34.588Z,1.60
2023-04-14T14:16:03.788Z,2.60
2023-04-14T14:18:31.130Z,0.90
2023-04-14T14:20:58.317Z,0.70
2023-04-14T14:23:26.437Z,0.82
2023-04-14T14:25:55.625Z,1.95
2023-04-14T14:28:23.017Z,1.25
2023-04-14T14:30:50.637Z,0.87
2023-04-14T14:33:19.299Z,31.88
2023-04-14T14:35:54.503Z,9.63
2023-04-14T14:38:21.879Z,1.40
2023-04-14T14:40:49.401Z,1.13
2023-04-14T14:43:16.581Z,1.40
2023-04-14T14:45:43.901Z,1.27
2023-04-14T14:48:12.833Z,1.20
2023-04-14T14:50:42.590Z,0.75
2023-04-14T14:53:10.261Z,0.70
2023-04-14T14:55:37.616Z,2.00
2023-04-14T14:58:06.460Z,1.75
2023-04-14T15:00:33.986Z,0.77
2023-04-14T15:03:01.389Z,1.48
2023-04-14T15:05:28.762Z,0.90
2023-04-14T15:07:57.496Z,1.67
2023-04-14T15:10:25.943Z,1.30
2023-04-14T15:12:53.797Z,1.13
2023-04-14T15:15:21.264Z,3.97
2023-04-14T15:17:48.847Z,14.73
2023-04-14T15:20:16.307Z,0.83
2023-04-14T15:22:43.738Z,0.50
2023-04-14T15:25:12.358Z,1.17
2023-04-14T15:27:39.691Z,3.72
2023-04-14T15:30:08.260Z,2.05
2023-04-14T15:32:35.593Z,2.77
2023-04-14T15:35:02.976Z,1.63
2023-04-14T15:37:30.263Z,4.28
2023-04-14T15:39:57.552Z,5.70
2023-04-14T15:42:26.214Z,3.25
2023-04-14T15:44:53.546Z,9.47
2023-04-14T15:47:20.958Z,8.50
2023-04-14T15:49:48.277Z,4.82
2023-04-14T15:52:17.293Z,4.80
2023-04-14T15:54:44.811Z,2.00
2023-04-14T15:57:12.271Z,2.40
2023-04-14T15:59:41.157Z,2.75
2023-04-14T16:02:08.427Z,2.80
2023-04-14T16:04:36.581Z,1.38
2023-04-14T16:07:04.290Z,1.55
2023-04-14T16:09:31.837Z,0.50
2023-04-14T16:11:59.092Z,0.77
2023-04-14T16:14:26.518Z,0.90
2023-04-14T16:16:57.819Z,0.90
2023-04-14T16:19:25.204Z,1.50
2023-04-14T16:21:52.514Z,1.37
2023-04-14T16:24:19.652Z,0.90
2023-04-14T16:26:48.343Z,1.02
2023-04-14T16:29:16.199Z,1.20
2023-04-14T16:31:43.583Z,2.08
2023-04-14T16:34:12.315Z,1.80
2023-04-14T16:36:39.786Z,2.60
2023-04-14T16:39:06.924Z,3.00
2023-04-14T16:41:34.140Z,1.67
2023-04-14T16:44:01.599Z,3.30
2023-04-14T16:46:29.007Z,3.57
2023-04-14T16:48:56.434Z,3.55
2023-04-14T16:51:27.642Z,3.05
2023-04-14T16:53:55.979Z,3.50
2023-04-14T16:56:23.452Z,4.60
2023-04-14T16:58:50.873Z,3.80
2023-04-14T17:01:18.239Z,2.22
2023-04-14T17:03:45.710Z,1.00
2023-04-14T17:06:13.166Z,1.40
2023-04-14T17:08:42.039Z,2.60
2023-04-14T17:11:09.453Z,4.20
2023-04-14T17:13:36.901Z,3.05
2023-04-14T17:16:08.802Z,8.80
2023-04-14T17:18:37.526Z,6.57
2023-04-14T17:21:05.787Z,4.93
2023-04-14T17:23:37.600Z,2.50
2023-04-14T17:26:06.528Z,3.35
2023-04-14T17:28:35.083Z,1.90
2023-04-14T17:31:06.546Z,2.60
2023-04-14T17:33:33.883Z,4.50
2023-04-14T17:36:01.235Z,4.00
2023-04-14T17:38:28.442Z,4.53
2023-04-14T17:40:56.190Z,8.07
2023-04-14T17:43:24.936Z,8.93
2023-04-14T17:45:52.526Z,8.25
2023-04-14T17:48:20.140Z,12.87
2023-04-14T17:50:47.992Z,12.60
2023-04-14T17:53:16.486Z,11.35
2023-04-14T17:55:43.842Z,13.10
2023-04-14T17:58:11.392Z,12.52
2023-04-14T18:00:40.497Z,8.53
2023-04-14T18:03:08.370Z,10.18
2023-04-14T18:05:36.556Z,9.77
2023-04-14T18:08:05.409Z,9.85
2023-04-14T18:10:32.827Z,10.40
2023-04-14T18:13:01.028Z,10.67
2023-04-14T18:15:28.503Z,10.27
2023-04-14T18:17:57.625Z,8.90
2023-04-14T18:20:26.374Z,8.98
2023-04-14T18:22:54.861Z,7.20
2023-04-14T18:25:22.633Z,6.07
2023-04-14T18:30:20.326Z,4.82
2023-04-14T18:32:48.088Z,3.83
2023-04-14T18:35:17.153Z,2.70
2023-04-14T18:37:46.631Z,3.13
2023-04-14T18:40:14.173Z,2.90
2023-04-14T18:42:41.693Z,2.38
2023-04-14T18:45:10.001Z,2.22
2023-04-14T18:47:37.504Z,2.33
2023-04-14T18:50:06.222Z,2.43
2023-04-14T18:52:35.153Z,2.75
2023-04-14T18:55:03.370Z,2.45
2023-04-14T18:57:31.108Z,1.63
2023-04-14T18:59:58.477Z,2.17
2023-04-14T19:02:26.384Z,1.90
2023-04-14T19:04:54.163Z,1.40
2023-04-14T19:07:21.421Z,1.40
2023-04-14T19:09:50.637Z,1.63
2023-04-14T19:12:27.652Z,1.60
2023-04-14T19:14:56.061Z,2.03
2023-04-14T19:17:24.191Z,2.20
2023-04-14T19:19:51.674Z,2.05
2023-04-14T19:22:19.301Z,2.17
2023-04-14T19:24:47.227Z,2.50
2023-04-14T19:27:16.338Z,2.50
2023-04-14T19:29:44.191Z,2.67
2023-04-14T19:32:12.197Z,2.90
2023-04-14T19:34:39.712Z,2.78
2023-04-14T19:37:07.199Z,2.72
2023-04-14T19:39:34.911Z,1.90
2023-04-14T19:42:05.224Z,2.45
2023-04-14T19:44:35.458Z,2.60
2023-04-14T19:47:02.735Z,2.20
2023-04-14T19:49:31.133Z,2.28
2023-04-14T19:51:58.889Z,2.80
2023-04-14T19:54:29.115Z,2.65
2023-04-14T19:56:56.726Z,2.63
2023-04-14T19:59:24.336Z,3.30
2023-04-14T20:01:53.928Z,2.75
2023-04-14T20:04:21.166Z,2.53
2023-04-14T20:06:48.943Z,3.17
2023-04-14T20:09:17.222Z,5.55
2023-04-14T20:11:45.742Z,5.03
2023-04-14T20:14:13.029Z,5.20
2023-04-14T20:16:42.811Z,4.57
2023-04-14T20:19:15.202Z,5.07
2023-04-14T20:21:43.776Z,5.32
2023-04-14T20:24:11.970Z,4.70
2023-04-14T20:26:42.757Z,4.43
2023-04-14T20:29:12.313Z,4.27
2023-04-14T20:31:41.775Z,6.25
2023-04-14T20:34:10.322Z,4.57
2023-04-14T20:36:39.328Z,2.20
2023-04-14T20:39:07.201Z,1.38
2023-04-14T20:41:34.931Z,2.30
2023-04-14T20:44:03.877Z,1.50
2023-04-14T20:46:31.190Z,1.10
2023-04-14T20:49:01.192Z,1.50
2023-04-14T20:51:29.288Z,1.00
2023-04-14T20:53:57.885Z,1.13
2023-04-14T20:56:28.705Z,0.70
2023-04-14T20:58:57.222Z,0.70
2023-04-14T21:01:26.663Z,0.40
2023-04-14T21:03:54.907Z,1.00
2023-04-14T21:06:22.255Z,1.03
2023-04-14T21:08:49.816Z,1.20
2023-04-14T21:11:19.119Z,1.92
2023-04-14T21:15:26.366Z,2.78
2023-04-14T21:16:34.278Z,2.83
2023-04-14T21:19:02.605Z,2.90
2023-04-14T21:21:30.287Z,3.83
2023-04-14T21:23:58.105Z,4.13
2023-04-14T21:26:28.667Z,4.00
2023-04-14T21:28:56.920Z,2.42
2023-04-14T21:31:24.459Z,3.10
2023-04-14T21:33:52.000Z,3.45
2023-04-14T21:36:19.926Z,4.55
2023-04-14T21:38:47.641Z,5.53
2023-04-14T21:41:16.322Z,3.90
2023-04-14T21:43:45.066Z,2.87
2023-04-14T21:46:12.222Z,3.22
2023-04-14T21:48:39.605Z,3.03
2023-04-14T21:51:09.127Z,3.00
2023-04-14T21:53:36.604Z,2.00
2023-04-14T21:56:09.970Z,1.20
2023-04-14T21:58:39.311Z,1.00
2023-04-14T22:01:10.361Z,1.17
2023-04-14T22:03:41.123Z,1.23
2023-04-14T22:06:11.748Z,1.67
2023-04-14T22:08:40.455Z,1.23
2023-04-14T22:11:12.832Z,1.60
2023-04-14T22:13:40.426Z,1.20
2023-04-14T22:16:11.359Z,0.90
2023-04-14T22:18:39.578Z,0.90
2023-04-14T22:21:10.142Z,0.60
2023-04-14T22:23:38.797Z,0.80
2023-04-14T22:26:06.198Z,0.90
2023-04-14T22:28:33.556Z,0.90
2023-04-14T22:31:00.995Z,1.10
2023-04-14T22:33:29.697Z,0.80
2023-04-14T22:35:57.043Z,0.77
2023-04-14T22:38:24.484Z,0.85
2023-04-14T22:40:52.896Z,0.80
2023-04-14T22:43:20.734Z,0.77
2023-04-14T22:45:48.394Z,0.50
2023-04-14T22:48:16.944Z,0.80
2023-04-14T22:50:45.625Z,0.60
2023-04-14T22:53:13.017Z,0.75
2023-04-14T22:55:40.260Z,0.68
2023-04-14T22:58:07.745Z,0.63
2023-04-14T23:00:34.960Z,0.90
2023-04-14T23:03:03.328Z,0.80
2023-04-14T23:05:30.657Z,1.35
2023-04-14T23:07:59.468Z,1.38
2023-04-14T23:10:26.782Z,0.60
2023-04-14T23:12:53.949Z,0.65
2023-04-14T23:15:21.155Z,1.00
2023-04-14T23:17:48.449Z,0.70
2023-04-14T23:20:15.942Z,0.82
2023-04-14T23:22:43.087Z,0.83
2023-04-14T23:25:11.844Z,0.80
2023-04-14T23:27:39.302Z,0.80
2023-04-14T23:30:07.748Z,0.63
2023-04-14T23:32:35.005Z,0.70
2023-04-14T23:35:03.483Z,0.70
2023-04-14T23:37:30.814Z,0.80
2023-04-14T23:39:58.184Z,0.75
2023-04-14T23:42:27.303Z,0.73
2023-04-14T23:44:55.003Z,1.02
2023-04-14T23:47:22.527Z,0.63
2023-04-14T23:49:49.935Z,0.80
2023-04-14T23:52:17.954Z,0.75
2023-04-14T23:54:45.219Z,0.40
2023-04-14T23:57:12.949Z,0.47
2023-04-14T23:59:41.669Z,0.50
